createdAt,value
2022-09-23T00:01:07.566Z,82.12
2022-09-23T00:03:35.428Z,82.52
2022-09-23T00:06:08.231Z,83.95
2022-09-23T00:08:35.508Z,84.85
2022-09-23T00:11:11.135Z,83.83
2022-09-23T00:13:38.923Z,81.81
2022-09-23T00:16:07.216Z,81.94
2022-09-23T00:18:34.186Z,82.60
2022-09-23T00:21:05.519Z,83.22
2022-09-23T00:23:32.740Z,83.63
2022-09-23T00:26:00.955Z,82.92
2022-09-23T00:28:28.269Z,81.00
2022-09-23T00:30:55.450Z,80.87
2022-09-23T00:33:22.465Z,81.66
2022-09-23T00:35:50.028Z,83.09
2022-09-23T00:38:17.538Z,84.36
2022-09-23T00:40:46.333Z,84.86
2022-09-23T00:43:14.127Z,83.56
2022-09-23T00:45:47.114Z,82.17
2022-09-23T00:48:18.373Z,83.03
2022-09-23T00:50:48.690Z,84.11
2022-09-23T00:53:16.920Z,84.99
2022-09-23T00:55:55.931Z,85.68
2022-09-23T00:58:26.861Z,84.51
2022-09-23T01:00:54.683Z,82.92
2022-09-23T01:03:23.187Z,83.35
2022-09-23T01:05:50.217Z,84.04
2022-09-23T01:08:17.224Z,85.56
2022-09-23T01:10:51.311Z,86.55
2022-09-23T01:13:40.201Z,84.88
2022-09-23T01:16:44.921Z,83.05
2022-09-23T01:19:21.155Z,82.89
2022-09-23T01:22:02.239Z,83.84
2022-09-23T01:24:44.569Z,84.90
2022-09-23T01:27:17.623Z,86.14
2022-09-23T01:30:05.680Z,84.98
2022-09-23T01:32:37.282Z,83.89
2022-09-23T01:35:12.438Z,84.09
2022-09-23T01:39:30.696Z,85.11
2022-09-23T01:42:17.455Z,86.72
2022-09-23T01:44:56.635Z,84.90
2022-09-23T01:47:33.433Z,83.63
2022-09-23T01:50:24.632Z,84.35
2022-09-23T01:52:51.668Z,85.85
2022-09-23T01:55:29.366Z,87.26
2022-09-23T01:58:10.424Z,86.32
2022-09-23T02:00:40.898Z,85.01
2022-09-23T02:03:15.565Z,85.23
2022-09-23T02:05:45.906Z,85.82
2022-09-23T02:08:27.962Z,87.07
2022-09-23T02:10:57.318Z,86.15
2022-09-23T02:13:30.674Z,84.12
2022-09-23T02:16:01.326Z,83.88
2022-09-23T02:18:39.432Z,84.54
2022-09-23T02:21:07.014Z,86.69
2022-09-23T02:23:44.137Z,86.68
2022-09-23T02:26:25.929Z,84.85
2022-09-23T02:28:57.135Z,85.03
2022-09-23T02:31:28.037Z,85.25
2022-09-23T02:34:04.338Z,86.15
2022-09-23T02:36:34.766Z,87.16
2022-09-23T02:39:04.195Z,85.50
2022-09-23T02:41:32.849Z,84.46
2022-09-23T02:44:10.328Z,84.62
2022-09-23T02:46:38.068Z,85.44
2022-09-23T02:49:25.167Z,86.84
2022-09-23T02:51:52.166Z,86.25
2022-09-23T02:54:22.658Z,84.98
2022-09-23T02:56:49.694Z,84.99
2022-09-23T02:59:19.631Z,85.92
2022-09-23T03:01:53.237Z,87.24
2022-09-23T03:04:40.889Z,87.50
2022-09-23T03:07:32.654Z,85.49
2022-09-23T03:10:16.667Z,84.76
2022-09-23T03:12:53.108Z,86.07
2022-09-23T03:15:51.815Z,86.51
2022-09-23T03:18:43.953Z,86.88
2022-09-23T03:21:33.835Z,85.03
2022-09-23T03:24:01.872Z,84.54
2022-09-23T03:26:31.570Z,85.13
2022-09-23T03:28:59.016Z,86.24
2022-09-23T03:31:25.911Z,87.18
2022-09-23T03:33:55.417Z,86.26
2022-09-23T03:36:47.087Z,83.75
2022-09-23T03:39:17.981Z,83.72
2022-09-23T03:41:49.516Z,84.35
2022-09-23T03:44:23.515Z,85.37
2022-09-23T03:46:50.487Z,86.40
2022-09-23T03:49:20.217Z,85.19
2022-09-23T03:51:47.154Z,83.24
2022-09-23T03:54:14.079Z,83.51
2022-09-23T03:56:41.144Z,84.95
2022-09-23T03:59:08.290Z,85.55
2022-09-23T04:01:35.438Z,86.39
2022-09-23T04:04:02.544Z,86.13
2022-09-23T04:06:29.840Z,84.49
2022-09-23T04:08:57.912Z,84.13
2022-09-23T04:11:25.067Z,85.09
2022-09-23T04:13:52.254Z,86.21
2022-09-23T04:16:19.599Z,86.88
2022-09-23T04:18:47.124Z,85.50
2022-09-23T04:21:14.297Z,84.13
2022-09-23T04:23:41.530Z,84.64
2022-09-23T04:26:08.685Z,85.53
2022-09-23T04:28:35.928Z,86.55
2022-09-23T04:31:07.226Z,87.57
2022-09-23T04:33:34.733Z,86.61
2022-09-23T04:36:02.192Z,84.58
2022-09-23T04:38:29.347Z,84.32
2022-09-23T04:40:57.113Z,84.88
2022-09-23T04:43:24.460Z,86.32
2022-09-23T04:46:01.555Z,87.62
2022-09-23T04:48:29.117Z,86.29
2022-09-23T04:51:03.870Z,84.65
2022-09-23T04:53:31.595Z,85.24
2022-09-23T04:56:06.737Z,85.80
2022-09-23T04:58:34.802Z,86.43
2022-09-23T05:01:17.787Z,87.17
2022-09-23T05:03:45.589Z,84.78
2022-09-23T05:06:14.178Z,84.82
2022-09-23T05:08:42.447Z,85.51
2022-09-23T05:11:09.598Z,86.25
2022-09-23T05:13:36.756Z,87.31
2022-09-23T05:16:06.562Z,86.49
2022-09-23T05:18:37.803Z,84.76
2022-09-23T05:21:05.065Z,84.41
2022-09-23T05:23:32.306Z,85.14
2022-09-23T05:26:17.784Z,86.48
2022-09-23T05:28:44.984Z,87.74
2022-09-23T05:31:19.696Z,85.89
2022-09-23T05:33:49.717Z,85.22
2022-09-23T05:36:20.926Z,85.36
2022-09-23T05:38:50.194Z,86.57
2022-09-23T05:41:18.411Z,87.90
2022-09-23T05:43:45.856Z,86.84
2022-09-23T05:46:18.160Z,85.63
2022-09-23T05:48:48.347Z,85.40
2022-09-23T05:51:18.584Z,85.88
2022-09-23T05:53:46.059Z,87.29
2022-09-23T05:56:14.302Z,87.10
2022-09-23T05:58:41.962Z,85.33
2022-09-23T06:01:11.066Z,85.26
2022-09-23T06:03:38.414Z,85.87
2022-09-23T06:06:06.410Z,86.42
2022-09-23T06:08:34.780Z,87.26
2022-09-23T06:11:09.359Z,85.88
2022-09-23T06:13:39.808Z,84.25
2022-09-23T06:16:08.372Z,84.98
2022-09-23T06:18:36.262Z,84.94
2022-09-23T06:21:03.645Z,84.97
2022-09-23T06:23:31.382Z,84.65
2022-09-23T06:26:02.825Z,83.43
2022-09-23T06:28:32.433Z,82.64
2022-09-23T06:31:00.579Z,81.79
2022-09-23T06:33:36.264Z,83.28
2022-09-23T06:36:06.070Z,84.09
2022-09-23T06:38:34.456Z,82.27
2022-09-23T06:41:03.350Z,81.59
2022-09-23T06:43:30.593Z,81.90
2022-09-23T06:46:01.533Z,82.42
2022-09-23T06:48:28.790Z,83.71
2022-09-23T06:50:59.342Z,84.35
2022-09-23T06:53:26.971Z,83.12
2022-09-23T06:56:00.677Z,81.96
2022-09-23T06:58:27.827Z,81.85
2022-09-23T07:00:55.487Z,82.16
2022-09-23T07:03:22.641Z,83.94
2022-09-23T07:05:49.892Z,84.88
2022-09-23T07:08:17.139Z,84.19
2022-09-23T07:10:44.290Z,82.58
2022-09-23T07:13:16.058Z,82.11
2022-09-23T07:15:43.617Z,82.69
2022-09-23T07:18:10.791Z,83.37
2022-09-23T07:20:38.726Z,83.49
2022-09-23T07:23:05.912Z,82.83
2022-09-23T07:25:34.462Z,81.56
2022-09-23T07:28:02.224Z,80.99
2022-09-23T07:30:29.391Z,80.56
2022-09-23T07:32:56.650Z,82.70
2022-09-23T07:35:23.908Z,83.81
2022-09-23T07:37:51.026Z,80.29
2022-09-23T07:40:18.237Z,78.23
2022-09-23T07:42:45.633Z,79.00
2022-09-23T07:45:13.299Z,76.63
2022-09-23T07:47:41.090Z,77.14
2022-09-23T07:50:11.698Z,77.16
2022-09-23T07:52:39.046Z,78.06
2022-09-23T07:55:07.625Z,79.72
2022-09-23T07:57:34.775Z,78.06
2022-09-23T08:00:02.717Z,76.13
2022-09-23T08:02:38.891Z,75.45
2022-09-23T08:05:07.078Z,76.47
2022-09-23T08:07:34.742Z,78.08
2022-09-23T08:10:02.006Z,78.70
2022-09-23T08:12:32.524Z,77.97
2022-09-23T08:15:00.799Z,78.29
2022-09-23T08:17:28.050Z,76.21
2022-09-23T08:19:55.302Z,75.42
2022-09-23T08:22:22.486Z,76.62
2022-09-23T08:24:50.188Z,77.19
2022-09-23T08:27:18.191Z,78.75
2022-09-23T08:29:45.336Z,79.23
2022-09-23T08:32:12.383Z,78.51
2022-09-23T08:34:40.270Z,78.03
2022-09-23T08:37:11.701Z,76.86
2022-09-23T08:39:38.953Z,76.94
2022-09-23T08:45:50.742Z,77.57
2022-09-23T08:48:24.395Z,77.28
2022-09-23T08:50:53.590Z,75.16
2022-09-23T08:53:26.523Z,73.24
2022-09-23T08:55:55.375Z,73.92
2022-09-23T08:58:28.835Z,73.90
2022-09-23T09:01:22.882Z,72.93
2022-09-23T09:03:53.883Z,73.57
2022-09-23T09:06:22.873Z,71.87
2022-09-23T09:08:58.879Z,74.41
2022-09-23T09:11:48.399Z,73.33
2022-09-23T09:14:27.947Z,74.48
2022-09-23T09:17:01.660Z,73.45
2022-09-23T09:19:47.229Z,72.26
2022-09-23T09:22:20.718Z,73.30
2022-09-23T09:24:48.513Z,72.37
2022-09-23T09:27:15.954Z,73.08
2022-09-23T09:29:46.444Z,73.72
2022-09-23T09:32:19.606Z,74.30
2022-09-23T09:34:54.233Z,74.96
2022-09-23T09:37:31.689Z,72.64
2022-09-23T09:39:59.557Z,70.28
2022-09-23T09:42:36.780Z,70.40
2022-09-23T09:45:05.305Z,71.47
2022-09-23T09:47:46.194Z,71.54
2022-09-23T09:50:20.110Z,72.76
2022-09-23T09:52:55.749Z,72.27
2022-09-23T09:55:27.347Z,72.83
2022-09-23T09:58:03.717Z,72.74
2022-09-23T10:00:45.718Z,72.15
2022-09-23T10:03:12.864Z,69.92
2022-09-23T10:05:51.993Z,69.43
2022-09-23T10:08:36.346Z,70.21
2022-09-23T10:11:07.706Z,70.80
2022-09-23T10:13:36.437Z,70.88
2022-09-23T10:16:03.945Z,71.44
2022-09-23T10:18:34.151Z,71.89
2022-09-23T10:21:07.793Z,72.24
2022-09-23T10:23:39.930Z,70.51
2022-09-23T10:26:10.862Z,67.28
2022-09-23T10:28:38.017Z,66.75
2022-09-23T10:31:25.853Z,67.21
2022-09-23T10:34:01.290Z,68.90
2022-09-23T10:36:30.288Z,69.47
2022-09-23T10:39:20.489Z,70.37
2022-09-23T10:42:23.694Z,69.91
2022-09-23T10:45:18.983Z,69.74
2022-09-23T10:48:03.031Z,70.83
2022-09-23T10:50:50.042Z,71.12
2022-09-23T10:53:29.489Z,70.56
2022-09-23T10:56:09.341Z,69.78
2022-09-23T10:59:01.781Z,70.09
2022-09-23T11:01:36.766Z,70.26
2022-09-23T11:04:31.643Z,71.43
2022-09-23T11:07:01.662Z,71.26
2022-09-23T11:09:56.738Z,71.61
2022-09-23T11:13:14.685Z,71.90
2022-09-23T11:16:05.346Z,70.16
2022-09-23T11:19:07.864Z,68.81
2022-09-23T11:21:38.188Z,70.16
2022-09-23T11:24:14.098Z,69.92
2022-09-23T11:27:07.303Z,71.18
2022-09-23T11:29:42.133Z,70.40
2022-09-23T11:32:18.919Z,69.99
2022-09-23T11:35:20.802Z,71.83
2022-09-23T11:37:53.457Z,71.29
2022-09-23T11:40:26.495Z,68.93
2022-09-23T11:42:59.495Z,67.01
2022-09-23T11:45:57.685Z,67.26
2022-09-23T11:48:27.326Z,65.70
2022-09-23T11:51:19.988Z,66.91
2022-09-23T11:53:52.539Z,68.53
2022-09-23T11:56:35.344Z,69.82
2022-09-23T11:59:10.410Z,71.30
2022-09-23T12:01:45.821Z,71.62
2022-09-23T12:04:28.927Z,69.55
2022-09-23T12:07:09.530Z,72.04
2022-09-23T12:09:58.239Z,72.85
2022-09-23T12:12:35.169Z,72.18
2022-09-23T12:15:21.157Z,72.80
2022-09-23T12:18:23.407Z,74.94
2022-09-23T12:21:50.615Z,77.90
2022-09-23T12:24:21.628Z,80.04
2022-09-23T12:26:50.824Z,78.26
2022-09-23T12:29:18.184Z,74.16
2022-09-23T12:31:46.877Z,73.32
2022-09-23T12:34:41.567Z,73.42
2022-09-23T12:37:08.812Z,75.78
2022-09-23T12:39:38.220Z,77.39
2022-09-23T12:42:10.825Z,77.89
2022-09-23T12:44:41.368Z,79.07
2022-09-23T12:47:14.625Z,79.76
2022-09-23T12:49:42.584Z,77.33
2022-09-23T12:52:16.088Z,78.36
2022-09-23T12:54:45.179Z,80.43
2022-09-23T12:57:12.843Z,82.35
2022-09-23T13:00:12.972Z,84.60
2022-09-23T13:03:15.449Z,83.45
2022-09-23T13:06:12.004Z,82.58
2022-09-23T13:08:40.476Z,81.61
2022-09-23T13:11:25.203Z,81.55
2022-09-23T13:13:53.204Z,80.80
2022-09-23T13:16:43.336Z,80.81
2022-09-23T13:19:27.434Z,80.04
2022-09-23T13:22:02.230Z,77.41
2022-09-23T13:24:29.150Z,75.98
2022-09-23T13:26:59.955Z,76.46
2022-09-23T13:29:27.909Z,77.75
2022-09-23T13:31:57.266Z,75.72
2022-09-23T13:34:28.593Z,75.43
2022-09-23T13:36:57.252Z,76.13
2022-09-23T13:39:26.174Z,75.89
2022-09-23T13:41:55.333Z,73.97
2022-09-23T13:44:22.594Z,73.81
2022-09-23T13:46:51.581Z,73.60
2022-09-23T13:49:32.558Z,72.92
2022-09-23T13:52:00.829Z,74.24
2022-09-23T13:54:33.111Z,74.89
2022-09-23T13:57:01.818Z,74.88
2022-09-23T13:59:37.341Z,75.70
2022-09-23T14:02:11.314Z,76.00
2022-09-23T14:04:39.521Z,73.30
2022-09-23T14:07:07.715Z,72.09
2022-09-23T14:09:43.875Z,72.16
2022-09-23T14:12:11.011Z,72.75
2022-09-23T14:14:39.895Z,74.55
2022-09-23T14:17:07.656Z,74.96
2022-09-23T14:19:35.420Z,74.93
2022-09-23T14:22:02.876Z,74.82
2022-09-23T14:24:31.465Z,72.99
2022-09-23T14:27:15.402Z,73.17
2022-09-23T14:29:44.195Z,73.49
2022-09-23T14:32:22.303Z,74.37
2022-09-23T14:35:04.810Z,75.23
2022-09-23T14:37:50.596Z,75.97
2022-09-23T14:40:24.648Z,76.77
2022-09-23T14:43:22.895Z,74.38
2022-09-23T14:45:52.225Z,72.23
2022-09-23T14:48:23.785Z,72.37
2022-09-23T14:50:58.265Z,71.62
2022-09-23T14:53:42.520Z,72.03
2022-09-23T14:56:15.623Z,70.98
2022-09-23T14:58:55.460Z,71.12
2022-09-23T15:01:41.168Z,71.53
2022-09-23T15:04:30.493Z,73.25
2022-09-23T15:07:15.883Z,72.83
2022-09-23T15:09:43.659Z,71.63
2022-09-23T15:12:14.805Z,71.57
2022-09-23T15:14:46.142Z,72.33
2022-09-23T15:17:34.693Z,73.84
2022-09-23T15:20:05.048Z,74.64
2022-09-23T15:22:33.539Z,75.53
2022-09-23T15:25:19.089Z,75.93
2022-09-23T15:27:59.651Z,75.69
2022-09-23T15:30:26.812Z,74.26
2022-09-23T15:32:54.154Z,74.64
2022-09-23T15:35:23.245Z,75.77
2022-09-23T15:37:51.322Z,75.75
2022-09-23T15:40:26.553Z,74.42
2022-09-23T15:42:58.735Z,76.02
2022-09-23T15:45:29.153Z,77.41
2022-09-23T15:47:59.480Z,77.07
2022-09-23T15:50:28.266Z,75.42
2022-09-23T15:52:55.328Z,75.13
2022-09-23T15:55:22.465Z,76.45
2022-09-23T15:57:49.612Z,79.36
2022-09-23T16:00:17.481Z,81.64
2022-09-23T16:02:46.003Z,83.02
2022-09-23T16:05:26.836Z,81.52
2022-09-23T16:07:54.510Z,80.87
2022-09-23T16:10:23.183Z,81.71
2022-09-23T16:12:53.552Z,82.33
2022-09-23T16:15:23.321Z,83.70
2022-09-23T16:17:50.566Z,82.84
2022-09-23T16:20:18.169Z,80.99
2022-09-23T16:23:13.439Z,80.52
2022-09-23T16:25:40.523Z,81.12
2022-09-23T16:28:07.735Z,81.99
2022-09-23T16:30:34.778Z,83.00
2022-09-23T16:33:02.138Z,82.50
2022-09-23T16:35:33.078Z,80.54
2022-09-23T16:38:03.914Z,79.67
2022-09-23T16:40:32.138Z,80.40
2022-09-23T16:43:01.797Z,81.46
2022-09-23T16:45:30.786Z,82.37
2022-09-23T16:47:58.056Z,82.95
2022-09-23T16:50:25.197Z,82.92
2022-09-23T16:52:55.933Z,80.66
2022-09-23T16:55:24.307Z,79.72
2022-09-23T16:57:52.375Z,80.30
2022-09-23T17:00:38.219Z,81.33
2022-09-23T17:03:25.181Z,82.32
2022-09-23T17:05:53.555Z,83.36
2022-09-23T17:08:20.908Z,82.22
2022-09-23T17:10:55.112Z,79.34
2022-09-23T17:13:22.686Z,78.24
2022-09-23T17:15:50.013Z,78.83
2022-09-23T17:18:19.545Z,79.95
2022-09-23T17:21:03.811Z,81.17
2022-09-23T17:23:31.473Z,82.04
2022-09-23T17:25:59.358Z,81.57
2022-09-23T17:28:26.480Z,79.45
2022-09-23T17:31:00.074Z,78.71
2022-09-23T17:33:28.291Z,79.18
2022-09-23T17:35:56.316Z,80.03
2022-09-23T17:38:28.615Z,80.87
2022-09-23T17:40:58.603Z,81.79
2022-09-23T17:43:26.061Z,81.42
2022-09-23T17:45:55.024Z,79.53
2022-09-23T17:48:24.349Z,78.51
2022-09-23T17:50:58.775Z,78.74
2022-09-23T17:53:26.334Z,79.46
2022-09-23T17:56:21.029Z,80.36
2022-09-23T17:58:48.998Z,81.56
2022-09-23T18:01:21.406Z,81.19
2022-09-23T18:03:52.503Z,78.83
2022-09-23T18:06:20.787Z,78.30
2022-09-23T18:08:49.476Z,79.13
2022-09-23T18:11:21.845Z,80.62
2022-09-23T18:13:56.782Z,81.52
2022-09-23T18:16:34.225Z,82.62
2022-09-23T18:19:02.428Z,82.31
2022-09-23T18:21:34.838Z,80.93
2022-09-23T18:26:54.715Z,81.29
2022-09-23T18:29:22.376Z,82.39
2022-09-23T18:31:50.604Z,83.10
2022-09-23T18:34:18.423Z,83.99
2022-09-23T18:36:46.175Z,83.45
2022-09-23T18:39:13.253Z,81.40
2022-09-23T18:41:40.896Z,80.81
2022-09-23T18:44:08.351Z,80.99
2022-09-23T18:46:36.516Z,81.66
2022-09-23T18:49:22.439Z,82.73
2022-09-23T18:51:56.836Z,83.73
2022-09-23T18:54:25.205Z,83.03
2022-09-23T18:56:52.250Z,80.97
2022-09-23T18:59:23.397Z,80.41
2022-09-23T19:01:50.629Z,80.72
2022-09-23T19:04:19.229Z,81.47
2022-09-23T19:06:47.401Z,82.40
2022-09-23T19:09:15.265Z,83.12
2022-09-23T19:11:44.698Z,82.82
2022-09-23T19:14:12.036Z,81.27
2022-09-23T19:16:42.728Z,80.61
2022-09-23T19:19:09.915Z,80.72
2022-09-23T19:21:37.678Z,80.88
2022-09-23T19:24:06.515Z,81.70
2022-09-23T19:26:39.215Z,82.84
2022-09-23T19:29:08.466Z,82.50
2022-09-23T19:31:39.610Z,80.47
2022-09-23T19:34:14.827Z,79.78
2022-09-23T19:36:43.608Z,80.41
2022-09-23T19:39:18.132Z,81.07
2022-09-23T19:41:46.007Z,81.91
2022-09-23T19:44:14.276Z,82.82
2022-09-23T19:46:44.149Z,82.76
2022-09-23T19:49:11.463Z,80.35
2022-09-23T19:51:40.637Z,79.56
2022-09-23T19:54:08.533Z,79.67
2022-09-23T19:56:35.862Z,80.27
2022-09-23T19:59:05.578Z,81.11
2022-09-23T20:01:33.030Z,82.30
2022-09-23T20:04:00.426Z,82.00
2022-09-23T20:06:32.346Z,80.19
2022-09-23T20:09:00.649Z,79.59
2022-09-23T20:11:28.820Z,79.93
2022-09-23T20:14:03.466Z,80.81
2022-09-23T20:16:34.912Z,81.80
2022-09-23T20:19:03.563Z,82.64
2022-09-23T20:21:31.009Z,82.32
2022-09-23T20:23:58.572Z,80.51
2022-09-23T20:26:44.463Z,79.48
2022-09-23T20:29:12.125Z,79.88
2022-09-23T20:31:42.488Z,80.80
2022-09-23T20:34:10.602Z,81.23
2022-09-23T20:36:39.101Z,82.27
2022-09-23T20:39:06.970Z,81.70
2022-09-23T20:41:36.986Z,79.47
2022-09-23T20:44:05.929Z,79.03
2022-09-23T20:46:33.822Z,79.49
2022-09-23T20:49:01.825Z,80.42
2022-09-23T20:51:29.063Z,81.57
2022-09-23T20:53:56.216Z,82.96
2022-09-23T20:56:23.981Z,82.70
2022-09-23T20:58:52.050Z,80.81
2022-09-23T21:01:19.762Z,80.52
2022-09-23T21:03:49.824Z,81.31
2022-09-23T21:06:18.467Z,82.01
2022-09-23T21:08:45.984Z,83.04
2022-09-23T21:11:14.875Z,84.19
2022-09-23T21:13:49.590Z,83.29
2022-09-23T21:16:18.429Z,81.18
2022-09-23T21:18:47.571Z,80.76
2022-09-23T21:21:18.960Z,81.15
2022-09-23T21:23:46.278Z,82.01
2022-09-23T21:26:23.480Z,82.96
2022-09-23T21:28:56.553Z,84.29
2022-09-23T21:31:26.026Z,83.08
2022-09-23T21:33:53.517Z,80.91
2022-09-23T21:36:21.383Z,80.45
2022-09-23T21:38:49.279Z,81.16
2022-09-23T21:41:17.416Z,81.85
2022-09-23T21:43:45.180Z,83.01
2022-09-23T21:46:13.812Z,83.93
2022-09-23T21:48:41.834Z,83.29
2022-09-23T21:51:11.485Z,80.77
2022-09-23T21:53:40.858Z,80.17
2022-09-23T21:56:11.889Z,80.63
2022-09-23T21:58:40.692Z,81.78
2022-09-23T22:01:09.510Z,82.44
2022-09-23T22:03:38.688Z,83.39
2022-09-23T22:06:09.828Z,82.88
2022-09-23T22:08:40.960Z,80.73
2022-09-23T22:11:31.136Z,80.16
2022-09-23T22:14:00.244Z,80.54
2022-09-23T22:16:28.776Z,81.55
2022-09-23T22:18:57.191Z,82.87
2022-09-23T22:21:26.235Z,83.58
2022-09-23T22:23:54.325Z,82.20
2022-09-23T22:26:21.226Z,80.80
2022-09-23T22:29:06.895Z,80.56
2022-09-23T22:31:53.088Z,81.05
2022-09-23T22:34:48.136Z,82.03
2022-09-23T22:37:10.620Z,83.19
2022-09-23T22:39:39.629Z,82.31
2022-09-23T22:42:06.969Z,80.70
2022-09-23T22:44:36.822Z,80.15
2022-09-23T22:47:04.085Z,80.97
2022-09-23T22:49:31.899Z,82.27
2022-09-23T22:51:59.478Z,83.25
2022-09-23T22:54:32.731Z,84.09
2022-09-23T22:57:03.803Z,83.24
2022-09-23T22:59:31.457Z,81.67
2022-09-23T23:02:06.142Z,81.35
2022-09-23T23:04:33.745Z,81.85
2022-09-23T23:07:02.740Z,82.81
2022-09-23T23:09:31.123Z,83.82
2022-09-23T23:11:58.366Z,83.17
2022-09-23T23:14:27.485Z,81.06
2022-09-23T23:16:54.719Z,80.65
2022-09-23T23:19:23.243Z,81.24
2022-09-23T23:21:50.763Z,82.34
2022-09-23T23:24:21.179Z,83.51
2022-09-23T23:26:48.943Z,84.40
2022-09-23T23:29:17.118Z,83.37
2022-09-23T23:31:45.171Z,81.57
2022-09-23T23:34:14.523Z,81.17
2022-09-23T23:36:42.662Z,81.65
2022-09-23T23:39:10.224Z,82.16
2022-09-23T23:41:39.114Z,83.51
2022-09-23T23:44:07.417Z,82.85
2022-09-23T23:46:35.640Z,81.07
2022-09-23T23:49:03.438Z,80.77
2022-09-23T23:51:30.781Z,81.04
2022-09-23T23:53:58.363Z,82.03
2022-09-23T23:56:25.795Z,83.16
2022-09-23T23:58:57.403Z,84.11
